createdAt,value
2019-05-13T00:01:00.466Z,3.3
2019-05-13T00:06:00.766Z,3.5
2019-05-13T00:11:08.582Z,4
2019-05-13T00:16:15.027Z,3.6
2019-05-13T00:21:20.425Z,3.4
2019-05-13T00:26:26.966Z,3.5
2019-05-13T00:31:33.197Z,3.9
2019-05-13T00:36:37.554Z,3.8
2019-05-13T00:41:45.098Z,3.9
2019-05-13T00:46:50.659Z,3.9
2019-05-13T00:51:58.607Z,3.7
2019-05-13T00:57:05.075Z,4.3
2019-05-13T01:02:10.761Z,4.1
2019-05-13T01:07:28.893Z,4.1
2019-05-13T01:12:24.978Z,3.9
2019-05-13T01:17:30.009Z,4
2019-05-13T01:22:38.025Z,4.1
2019-05-13T01:27:45.143Z,4.5
2019-05-13T01:32:50.715Z,4.3
2019-05-13T01:37:56.954Z,4.5
2019-05-13T01:43:04.614Z,4.7
2019-05-13T01:48:10.141Z,4.7
2019-05-13T01:53:17.866Z,5
2019-05-13T01:58:24.694Z,4.7
2019-05-13T02:03:30.342Z,4.8
2019-05-13T02:08:38.499Z,4.9
2019-05-13T02:13:45.578Z,5.2
2019-05-13T02:18:50.951Z,5
2019-05-13T02:23:58.541Z,5.1
2019-05-13T02:29:04.702Z,5.1
2019-05-13T02:34:14.399Z,5.3
2019-05-13T02:35:33.466Z,5.5
2019-05-13T02:40:38.866Z,5.5
2019-05-13T02:45:47.853Z,5.9
2019-05-13T02:50:56.900Z,6.2
2019-05-13T02:56:03.858Z,6.5
2019-05-13T03:01:13.198Z,6.8
2019-05-13T03:06:21.530Z,7.1
2019-05-13T03:11:27.689Z,7.1
2019-05-13T03:16:33.552Z,6.9
2019-05-13T03:21:38.926Z,7.6
2019-05-13T03:26:47.459Z,7.5
2019-05-13T03:31:56.918Z,7.3
2019-05-13T03:37:08.304Z,7
2019-05-13T03:42:13.278Z,7.2
2019-05-13T03:47:18.937Z,7.4
2019-05-13T03:52:27.675Z,7.6
2019-05-13T03:57:34.666Z,8.2
2019-05-13T04:02:42.588Z,8.3
2019-05-13T04:07:48.369Z,7.8
2019-05-13T04:12:56.756Z,8.1
2019-05-13T04:18:03.689Z,8.1
2019-05-13T04:23:07.644Z,7.9
2019-05-13T04:28:16.526Z,8.4
2019-05-13T04:33:24.014Z,8.3
2019-05-13T04:38:28.041Z,8.1
2019-05-13T04:43:36.274Z,7.9
2019-05-13T04:48:45.310Z,8.1
2019-05-13T04:53:57.498Z,7.8
2019-05-13T04:58:55.187Z,7.9
2019-05-13T05:04:11.251Z,8
2019-05-13T05:09:06.202Z,7.9
2019-05-13T05:14:13.122Z,8
2019-05-13T05:19:17.266Z,7.9
2019-05-13T05:24:23.219Z,8
2019-05-13T05:29:28.839Z,7.6
2019-05-13T05:34:36.478Z,8.1
2019-05-13T05:39:42.990Z,8.3
2019-05-13T05:44:48.424Z,8.7
2019-05-13T05:49:56.559Z,7.7
2019-05-13T05:55:03.318Z,8.1
2019-05-13T06:00:11.278Z,7.9
2019-05-13T06:05:17.174Z,7.3
2019-05-13T06:10:25.150Z,7.4
2019-05-13T06:15:32.510Z,7.6
2019-05-13T06:20:36.532Z,7.4
2019-05-13T06:25:43.542Z,7.3
2019-05-13T06:30:44.116Z,7.3
2019-05-13T06:35:47.649Z,7.2
2019-05-13T06:41:08.033Z,7.1
2019-05-13T06:45:57.705Z,6.7
2019-05-13T06:51:05.534Z,6.6
2019-05-13T06:56:12.889Z,9.7
2019-05-13T07:01:18.712Z,6.4
2019-05-13T07:06:28.403Z,6.5
2019-05-13T07:11:36.754Z,6.6
2019-05-13T07:16:43.122Z,7.2
2019-05-13T07:21:52.962Z,6.1
2019-05-13T07:26:58.385Z,6.2
2019-05-13T07:32:08.717Z,7.6
2019-05-13T07:37:06.460Z,6.6
2019-05-13T07:42:13.324Z,5.7
2019-05-13T07:47:19.029Z,5.7
2019-05-13T07:52:26.802Z,5.5
2019-05-13T07:57:32.879Z,5.6
2019-05-13T08:02:38.333Z,6.4
2019-05-13T08:07:46.154Z,5.6
2019-05-13T08:12:52.528Z,5.9
2019-05-13T08:17:58.115Z,5.5
2019-05-13T08:23:03.662Z,4.8
2019-05-13T08:28:06.178Z,4.8
2019-05-13T08:33:13.492Z,5.7
2019-05-13T08:38:13.615Z,8.2
2019-05-13T08:43:17.562Z,5.8
2019-05-13T08:48:27.193Z,4.5
2019-05-13T08:53:26.613Z,4.7
2019-05-13T08:58:33.135Z,5.2
2019-05-13T09:03:35.626Z,4.9
2019-05-13T09:08:43.742Z,4.9
2019-05-13T09:13:43.290Z,5.1
2019-05-13T09:18:53.016Z,4.8
2019-05-13T09:23:51.286Z,6.7
2019-05-13T09:29:01.144Z,4.2
2019-05-13T09:34:02.558Z,4.3
2019-05-13T09:39:09.462Z,4
2019-05-13T09:44:18.106Z,4.4
2019-05-13T09:49:27.494Z,3.8
2019-05-13T09:54:34.787Z,5.1
2019-05-13T09:59:43.003Z,3.7
2019-05-13T10:04:47.305Z,3.3
2019-05-13T10:09:51.768Z,3.3
2019-05-13T10:14:58.030Z,3.2
2019-05-13T10:20:05.226Z,3
2019-05-13T10:25:07.553Z,2.9
2019-05-13T10:30:15.689Z,3.2
2019-05-13T10:35:20.721Z,3.2
2019-05-13T10:40:25.766Z,2.9
2019-05-13T10:45:33.979Z,3
2019-05-13T10:50:41.692Z,3
2019-05-13T10:55:47.168Z,2.9
2019-05-13T11:00:53.008Z,2.6
2019-05-13T11:05:58.754Z,2.7
2019-05-13T11:11:03.817Z,3.1
2019-05-13T11:16:11.503Z,2.6
2019-05-13T11:21:17.851Z,2.8
2019-05-13T11:26:26.748Z,2.9
2019-05-13T11:31:33.824Z,3
2019-05-13T11:36:44.218Z,3.2
2019-05-13T11:41:46.349Z,3
2019-05-13T11:46:53.972Z,2.9
2019-05-13T11:52:02.541Z,3.1
2019-05-13T11:57:08.214Z,3.4
2019-05-13T12:02:16.444Z,3.5
2019-05-13T12:07:24.130Z,3.4
2019-05-13T12:17:34.970Z,3.8
2019-05-13T12:22:42.574Z,4.3
2019-05-13T12:27:48.115Z,3.7
2019-05-13T12:32:58.137Z,4.5
2019-05-13T12:38:06.736Z,3.6
2019-05-13T12:43:14.180Z,3.3
2019-05-13T12:48:14.765Z,3.3
2019-05-13T12:53:22.815Z,3.6
2019-05-13T12:58:28.188Z,3.7
2019-05-13T13:03:37.536Z,4.4
2019-05-13T13:08:50.748Z,3.9
2019-05-13T13:14:10.285Z,4.2
2019-05-13T13:18:54.997Z,3.7
2019-05-13T13:24:05.584Z,3.8
2019-05-13T13:29:00.659Z,4.5
2019-05-13T13:34:17.923Z,4.4
2019-05-13T13:39:13.661Z,3.7
2019-05-13T13:44:12.983Z,3.8
2019-05-13T13:49:22.091Z,3.8
2019-05-13T13:54:22.133Z,4.1
2019-05-13T13:59:28.289Z,3.7
2019-05-13T14:04:29.188Z,3.9
2019-05-13T14:09:34.493Z,3.7
2019-05-13T14:14:42.486Z,4
2019-05-13T14:19:48.042Z,4.4
2019-05-13T14:24:56.079Z,5.2
2019-05-13T14:30:02.366Z,4.8
2019-05-13T14:35:12.185Z,4.5
2019-05-13T14:40:07.645Z,4
2019-05-13T14:45:14.475Z,4.5
2019-05-13T14:50:14.726Z,3.8
2019-05-13T14:55:22.399Z,4.1
2019-05-13T15:00:27.656Z,3.9
2019-05-13T15:05:32.524Z,5.1
2019-05-13T15:10:37.510Z,4
2019-05-13T15:15:42.972Z,4.1
2019-05-13T15:20:48.816Z,3.9
2019-05-13T15:25:56.957Z,3.9
2019-05-13T15:31:02.115Z,4
2019-05-13T15:36:07.448Z,4.3
2019-05-13T15:41:16.584Z,4.2
2019-05-13T15:46:22.799Z,4.4
2019-05-13T15:51:28.183Z,4.5
2019-05-13T15:56:34.436Z,4.1
2019-05-13T16:01:41.324Z,4.3
2019-05-13T16:06:46.612Z,4.6
2019-05-13T16:11:52.988Z,4
2019-05-13T16:16:58.555Z,4.8
2019-05-13T16:22:04.749Z,4.6
2019-05-13T16:27:12.843Z,4.8
2019-05-13T16:32:23.647Z,4.5
2019-05-13T16:37:27.373Z,4
2019-05-13T16:42:35.009Z,4.5
2019-05-13T16:48:04.433Z,4.1
2019-05-13T16:52:52.170Z,3.8
2019-05-13T16:57:55.785Z,4.1
2019-05-13T17:03:04.699Z,4.2
2019-05-13T17:08:08.457Z,4.4
2019-05-13T17:13:13.550Z,4
2019-05-13T17:18:22.860Z,3.9
2019-05-13T17:23:28.278Z,4.3
2019-05-13T17:28:35.239Z,4.5
2019-05-13T17:33:40.666Z,3.9
2019-05-13T17:38:46.201Z,3.9
2019-05-13T17:43:52.635Z,4.4
2019-05-13T17:48:57.779Z,3.7
2019-05-13T17:54:04.908Z,4
2019-05-13T17:59:12.205Z,7.2
2019-05-13T18:04:12.884Z,3.7
2019-05-13T18:09:16.569Z,3.7
2019-05-13T18:14:22.563Z,4.9
2019-05-13T18:19:31.657Z,4.8
2019-05-13T18:24:37.577Z,4.6
2019-05-13T18:29:42.933Z,4.8
2019-05-13T18:34:49.688Z,6.9
2019-05-13T18:39:54.619Z,4.8
2019-05-13T18:45:01.912Z,5.1
2019-05-13T18:50:09.447Z,5.3
2019-05-13T18:55:18.651Z,4.8
2019-05-13T19:00:23.857Z,4.5
2019-05-13T19:05:28.922Z,4.6
2019-05-13T19:10:35.970Z,4.6
2019-05-13T19:15:42.248Z,4.4
2019-05-13T19:20:47.385Z,4.4
2019-05-13T19:25:47.899Z,4.4
2019-05-13T19:30:57.630Z,4.4
2019-05-13T19:36:02.414Z,3.9
2019-05-13T19:41:07.939Z,3.8
2019-05-13T19:46:15.280Z,4
2019-05-13T19:51:28.101Z,4
2019-05-13T19:56:26.690Z,4.2
2019-05-13T20:01:33.076Z,3.8
2019-05-13T20:06:38.515Z,4.3
2019-05-13T20:11:45.577Z,4.2
2019-05-13T20:16:53.258Z,4
2019-05-13T20:21:58.467Z,4
2019-05-13T20:27:06.066Z,3.7
2019-05-13T20:32:12.509Z,3.5
2019-05-13T20:37:17.838Z,3.5
2019-05-13T20:42:25.052Z,3.8
2019-05-13T20:47:34.333Z,3.5
2019-05-13T20:52:41.888Z,3.6
2019-05-13T20:57:42.754Z,3.2
2019-05-13T21:02:47.731Z,3.4
2019-05-13T21:07:55.593Z,3.2
2019-05-13T21:13:02.689Z,3.1
2019-05-13T21:18:08.453Z,3.5
2019-05-13T21:23:15.977Z,3.5
2019-05-13T21:28:22.996Z,3.5
2019-05-13T21:33:28.649Z,3.7
2019-05-13T21:38:36.103Z,3.7
2019-05-13T21:43:41.369Z,3.3
2019-05-13T21:48:42.495Z,3.4
2019-05-13T21:53:47.623Z,3.2
2019-05-13T21:58:53.133Z,3.3
2019-05-13T22:03:58.266Z,3.6
2019-05-13T22:09:06.408Z,3.5
2019-05-13T22:14:12.141Z,3.8
2019-05-13T22:19:17.593Z,3.3
2019-05-13T22:24:22.980Z,3.5
2019-05-13T22:29:28.245Z,3.7
2019-05-13T22:34:35.624Z,3.5
2019-05-13T22:39:42.823Z,3.6
2019-05-13T22:44:48.059Z,3.5
2019-05-13T22:49:57.849Z,3.7
2019-05-13T22:55:03.962Z,3.3
2019-05-13T23:00:11.635Z,3.4
2019-05-13T23:05:17.052Z,3.2
2019-05-13T23:10:23.386Z,3.4
2019-05-13T23:15:28.769Z,3.7
2019-05-13T23:20:34.268Z,4
2019-05-13T23:25:43.145Z,3.7
2019-05-13T23:30:48.531Z,3.7
2019-05-13T23:35:55.355Z,4
2019-05-13T23:41:02.808Z,3.7
2019-05-13T23:46:08.199Z,3.8
2019-05-13T23:51:16.334Z,4.1
2019-05-13T23:56:22.738Z,4.5
